Time;durP1;ratioP1;P1;durP2;ratioP2;P2;SDS_P1;SDS_P2;PMS_P1;PMS_P2;Temp;Humidity;BMP_temperature;BMP_pressure;BME280_temperature;BME280_humidity;BME280_pressure;Samples;Min_cycle;Max_cycle;Signal;HPM_P1;HPM_P2
2022/08/11 00:00:39;;;;;;;11.68;7.53;;;15.60;99.90;;;;;;5038593;28;20010;-79
2022/08/11 00:03:08;;;;;;;10.50;7.22;;;15.60;99.90;;;;;;5038604;28;20045;-79
2022/08/11 00:05:53;;;;;;;9.38;7.32;;;15.60;99.90;;;;;;5038532;28;20040;-79
2022/08/11 00:08:22;;;;;;;12.40;7.28;;;15.60;99.90;;;;;;5038580;28;20010;-79
2022/08/11 00:11:08;;;;;;;12.25;7.90;;;15.90;99.90;;;;;;5038461;28;20089;-79
2022/08/11 00:13:41;;;;;;;10.98;7.38;;;15.80;99.90;;;;;;5038476;28;20033;-79
2022/08/11 00:16:12;;;;;;;12.50;7.60;;;15.80;99.90;;;;;;5038395;28;20011;-78
2022/08/11 00:18:41;;;;;;;10.07;7.03;;;15.80;99.90;;;;;;5040139;28;20040;-79
2022/08/11 00:21:08;;;;;;;12.57;7.63;;;15.80;99.90;;;;;;5041938;28;20009;-79
2022/08/11 00:23:40;;;;;;;11.70;8.25;;;15.80;99.90;;;;;;5041991;28;20018;-79
2022/08/11 00:26:06;;;;;;;13.63;8.77;;;15.90;99.90;;;;;;5041958;28;20014;-79
2022/08/11 00:28:34;;;;;;;14.25;8.77;;;15.90;99.90;;;;;;5041737;28;20041;-79
2022/08/11 00:31:09;;;;;;;12.52;8.15;;;15.80;99.90;;;;;;5041403;28;20018;-79
2022/08/11 00:33:41;;;;;;;13.82;8.10;;;15.80;99.90;;;;;;5041054;28;20042;-79
2022/08/11 00:36:10;;;;;;;15.88;9.00;;;15.80;99.90;;;;;;5040151;28;20056;-79
2022/08/11 00:38:41;;;;;;;12.82;8.57;;;15.70;99.90;;;;;;5039745;28;20034;-79
2022/08/11 00:41:27;;;;;;;15.07;8.15;;;15.70;99.90;;;;;;5040541;28;20040;-78
2022/08/11 00:44:20;;;;;;;11.63;7.90;;;15.60;99.90;;;;;;5040887;28;20073;-78
2022/08/11 00:46:49;;;;;;;12.13;8.80;;;15.60;99.90;;;;;;5041486;28;20010;-79
2022/08/11 00:49:47;;;;;;;14.35;8.73;;;15.60;99.90;;;;;;5041369;28;20033;-79
2022/08/11 00:52:46;;;;;;;12.52;9.02;;;15.60;99.90;;;;;;5041348;28;20022;-79
2022/08/11 00:55:21;;;;;;;16.20;8.48;;;15.50;99.90;;;;;;5041192;28;20034;-79
2022/08/11 00:58:17;;;;;;;12.05;8.52;;;15.50;99.90;;;;;;5041345;28;20021;-79
2022/08/11 01:01:15;;;;;;;12.63;9.52;;;15.50;99.90;;;;;;5041212;28;20034;-80
2022/08/11 01:04:12;;;;;;;12.82;8.85;;;15.40;99.90;;;;;;5016013;28;20090;-79
2022/08/11 01:07:22;;;;;;;14.00;9.07;;;15.40;99.90;;;;;;5038164;28;20066;-79
2022/08/11 01:10:02;;;;;;;12.93;9.00;;;15.40;99.90;;;;;;5040926;28;20114;-79
2022/08/11 01:12:45;;;;;;;10.13;7.63;;;15.50;99.90;;;;;;5040975;28;20025;-79
2022/08/11 01:15:39;;;;;;;13.25;8.35;;;15.30;99.90;;;;;;5040762;28;20018;-79
2022/08/11 01:18:19;;;;;;;13.75;8.23;;;15.30;99.90;;;;;;5040797;28;20018;-79
2022/08/11 01:21:15;;;;;;;11.75;7.78;;;15.20;99.90;;;;;;5040696;28;20098;-78
2022/08/11 01:24:12;;;;;;;14.50;8.43;;;15.10;99.90;;;;;;5040663;28;20041;-79
2022/08/11 01:27:05;;;;;;;12.63;8.52;;;15.10;99.90;;;;;;5040539;28;20038;-79
2022/08/11 01:29:48;;;;;;;14.70;10.00;;;15.10;99.90;;;;;;5039950;28;20014;-79
2022/08/11 01:32:43;;;;;;;15.07;9.57;;;15.00;99.90;;;;;;5040615;28;20013;-79
2022/08/11 01:35:28;;;;;;;12.93;9.55;;;15.10;99.90;;;;;;5040320;28;20042;-79
2022/08/11 01:38:31;;;;;;;16.67;9.18;;;15.10;99.90;;;;;;5040376;28;20069;-78
2022/08/11 01:44:46;;;;;;;14.93;9.85;;;15.00;99.90;;;;;;5040503;28;20021;-78
2022/08/11 01:47:49;;;;;;;13.65;10.13;;;15.10;99.90;;;;;;5040158;28;20041;-78
2022/08/11 01:50:29;;;;;;;16.60;10.52;;;15.00;99.90;;;;;;5040067;28;20049;-79
2022/08/11 01:53:02;;;;;;;11.85;9.23;;;14.90;99.90;;;;;;5040082;28;20033;-78
2022/08/11 01:55:37;;;;;;;14.40;9.73;;;14.90;99.90;;;;;;5040271;28;20034;-79
2022/08/11 01:58:21;;;;;;;14.10;10.15;;;14.80;99.90;;;;;;5040129;28;20013;-79
2022/08/11 02:01:15;;;;;;;17.08;9.80;;;14.80;99.90;;;;;;5040042;28;20021;-78
2022/08/11 02:03:45;;;;;;;13.82;10.02;;;14.80;99.90;;;;;;5039783;28;20014;-78
2022/08/11 02:09:40;;;;;;;16.42;10.30;;;14.90;99.90;;;;;;5040038;28;20098;-80
2022/08/11 02:12:30;;;;;;;14.85;9.32;;;14.80;99.90;;;;;;5039847;28;20018;-79
2022/08/11 02:15:33;;;;;;;15.85;9.43;;;14.70;99.90;;;;;;5039564;28;20034;-78
2022/08/11 02:18:09;;;;;;;14.65;8.95;;;14.60;99.90;;;;;;5039666;28;20010;-79
2022/08/11 02:24:04;;;;;;;16.65;9.23;;;14.50;99.90;;;;;;5039716;28;20021;-78
2022/08/11 02:26:35;;;;;;;15.70;9.77;;;14.60;99.90;;;;;;5039698;28;20018;-78
2022/08/11 02:29:10;;;;;;;15.43;9.77;;;14.50;99.90;;;;;;5039818;28;20010;-79
2022/08/11 02:34:26;;;;;;;15.32;10.70;;;14.50;99.90;;;;;;5039141;28;20060;-78
2022/08/11 02:37:13;;;;;;;19.08;10.32;;;14.40;99.90;;;;;;5039598;28;20032;-79
2022/08/11 02:39:57;;;;;;;17.58;10.90;;;14.60;99.90;;;;;;5039429;28;20078;-79
2022/08/11 02:42:31;;;;;;;17.48;11.02;;;14.50;99.90;;;;;;5038446;28;20021;-78
2022/08/11 02:45:25;;;;;;;13.27;9.43;;;14.40;99.90;;;;;;5039099;28;20010;-79
2022/08/11 02:51:05;;;;;;;14.77;9.82;;;14.40;99.90;;;;;;5039334;28;20033;-79
2022/08/11 02:53:46;;;;;;;13.23;9.55;;;14.30;99.90;;;;;;5039175;28;20018;-79
2022/08/11 02:56:30;;;;;;;18.35;9.88;;;14.30;99.90;;;;;;5039332;28;20014;-78
2022/08/11 03:02:36;;;;;;;15.00;9.88;;;14.50;99.90;;;;;;5039254;28;20048;-78
2022/08/11 03:05:16;;;;;;;12.73;9.63;;;14.40;99.90;;;;;;5039152;28;20010;-79
2022/08/11 03:07:51;;;;;;;14.63;9.27;;;14.40;99.90;;;;;;5039162;28;20074;-79
2022/08/11 03:17:27;;;;;;;14.37;9.20;;;14.40;99.90;;;;;;5036133;28;20072;-79
2022/08/11 03:19:55;;;;;;;13.13;9.07;;;14.40;99.90;;;;;;5033156;28;20057;-79
2022/08/11 03:22:28;;;;;;;14.13;9.50;;;14.40;99.90;;;;;;5038730;28;20010;-79
2022/08/11 03:25:00;;;;;;;12.63;9.23;;;14.30;99.90;;;;;;5038957;28;20034;-79
2022/08/11 03:27:48;;;;;;;17.10;9.27;;;14.30;99.90;;;;;;5038872;28;20025;-78
2022/08/11 03:30:49;;;;;;;14.10;9.90;;;14.20;99.90;;;;;;5038691;28;20081;-79
2022/08/11 03:36:26;;;;;;;15.25;9.40;;;14.30;99.90;;;;;;5038024;28;20045;-79
2022/08/11 03:39:04;;;;;;;10.95;8.43;;;14.20;99.90;;;;;;5036276;28;20018;-79
2022/08/11 03:41:52;;;;;;;18.00;10.15;;;14.20;99.90;;;;;;5038610;28;20012;-78
2022/08/11 03:44:42;;;;;;;14.50;9.60;;;14.10;99.90;;;;;;5038668;28;20010;-79
2022/08/11 03:47:16;;;;;;;15.50;9.80;;;14.20;99.90;;;;;;5038621;28;20037;-79
2022/08/11 03:49:56;;;;;;;16.92;10.52;;;14.10;99.90;;;;;;5038552;28;20097;-79
2022/08/11 03:52:55;;;;;;;15.63;9.35;;;14.10;99.90;;;;;;5038588;28;20010;-79
2022/08/11 03:55:49;;;;;;;16.85;10.55;;;14.00;99.90;;;;;;5042529;28;20018;-79
2022/08/11 03:58:37;;;;;;;13.23;10.30;;;14.10;99.90;;;;;;5042224;28;20022;-79
2022/08/11 04:01:33;;;;;;;17.40;10.73;;;14.00;99.90;;;;;;5042304;28;20081;-79
2022/08/11 04:04:41;;;;;;;15.05;9.73;;;14.20;99.90;;;;;;5042124;28;20041;-79
2022/08/11 04:07:32;;;;;;;15.80;9.73;;;14.20;99.90;;;;;;5041853;28;20026;-78
2022/08/11 04:10:07;;;;;;;13.63;9.52;;;14.30;99.90;;;;;;5042158;28;20026;-79
2022/08/11 04:12:54;;;;;;;13.88;9.95;;;14.20;99.90;;;;;;5041915;28;20040;-79
2022/08/11 04:16:01;;;;;;;14.82;10.05;;;14.10;99.90;;;;;;5042100;28;20010;-79
2022/08/11 04:18:44;;;;;;;16.63;9.85;;;14.20;1.00;;;;;;5042088;28;20036;-79
2022/08/11 04:21:34;;;;;;;17.13;9.98;;;14.20;1.00;;;;;;5041788;28;20018;-79
2022/08/11 04:24:44;;;;;;;14.93;10.05;;;14.20;1.00;;;;;;5041948;28;20014;-79
2022/08/11 04:27:31;;;;;;;16.65;9.32;;;14.30;1.00;;;;;;5041852;28;20073;-79
2022/08/11 04:30:18;;;;;;;18.15;10.52;;;14.30;1.00;;;;;;5041723;28;20025;-79
2022/08/11 04:32:52;;;;;;;16.45;9.43;;;14.30;1.00;;;;;;5041758;28;20081;-79
2022/08/11 04:35:45;;;;;;;15.55;9.73;;;14.30;1.00;;;;;;5041527;28;20030;-80
2022/08/11 04:38:30;;;;;;;18.17;10.05;;;14.40;1.00;;;;;;5041654;28;20021;-78
2022/08/11 04:41:15;;;;;;;16.10;10.38;;;14.40;1.00;;;;;;5041581;28;20064;-78
2022/08/11 04:44:28;;;;;;;17.85;9.68;;;14.40;1.00;;;;;;5041534;28;20017;-79
2022/08/11 05:03:09;;;;;;;14.10;9.18;;;14.70;1.00;;;;;;5041209;28;20045;-79
2022/08/11 05:06:08;;;;;;;16.38;10.00;;;14.80;1.00;;;;;;5040161;28;20089;-79
2022/08/11 05:09:00;;;;;;;16.88;10.57;;;14.90;1.00;;;;;;5041175;28;20094;-79
2022/08/11 05:11:43;;;;;;;16.65;10.35;;;14.90;1.00;;;;;;5040948;28;20046;-79
2022/08/11 05:34:51;;;;;;;14.00;9.00;;;23.40;99.90;;;;;;5040462;28;20097;-79
2022/08/11 05:37:23;;;;;;;11.88;8.05;;;24.90;99.90;;;;;;5040490;28;20041;-79
2022/08/11 05:56:46;;;;;;;8.75;7.88;;;31.40;99.90;;;;;;5040164;28;20045;-80
2022/08/11 05:59:14;;;;;;;11.30;7.90;;;31.00;99.90;;;;;;5040118;28;20020;-80
2022/08/11 06:01:41;;;;;;;12.40;7.75;;;31.20;99.90;;;;;;5040017;28;20069;-80
2022/08/11 06:04:14;;;;;;;10.90;7.13;;;32.30;99.90;;;;;;5039943;28;20029;-80
2022/08/11 06:06:55;;;;;;;10.32;7.47;;;32.70;99.90;;;;;;5040038;28;20018;-80
2022/08/11 06:09:36;;;;;;;11.55;8.30;;;31.70;99.90;;;;;;5039958;28;20034;-80
2022/08/11 06:12:07;;;;;;;11.45;7.53;;;31.90;99.90;;;;;;5039988;28;20029;-80
2022/08/11 06:14:39;;;;;;;8.93;7.57;;;32.70;99.90;;;;;;5039911;28;20010;-80
2022/08/11 06:17:05;;;;;;;10.82;7.70;;;34.00;99.90;;;;;;5039474;28;20024;-80
2022/08/11 06:19:38;;;;;;;11.05;8.18;;;35.00;99.90;;;;;;5039547;28;20018;-80
2022/08/11 06:22:06;;;;;;;9.73;7.78;;;34.70;99.90;;;;;;5039798;28;20010;-80
2022/08/11 06:24:34;;;;;;;8.95;7.72;;;33.20;99.90;;;;;;5039598;28;20057;-80
2022/08/11 06:27:02;;;;;;;8.68;7.78;;;31.50;99.90;;;;;;5039709;28;20066;-79
2022/08/11 06:29:28;;;;;;;11.43;8.35;;;27.50;99.90;;;;;;5039512;28;20021;-79
2022/08/11 06:31:59;;;;;;;13.68;8.27;;;25.40;99.90;;;;;;5039459;28;20014;-80
2022/08/11 06:34:47;;;;;;;8.90;7.82;;;28.50;99.90;;;;;;5039112;28;20102;-80
2022/08/11 06:37:30;;;;;;;9.88;7.90;;;31.90;99.90;;;;;;5039483;28;20021;-80
2022/08/11 06:39:55;;;;;;;8.82;7.97;;;34.10;99.90;;;;;;5039203;28;20097;-80
2022/08/11 06:42:37;;;;;;;10.45;6.95;;;34.20;99.90;;;;;;5038882;28;20010;-79
2022/08/11 06:45:25;;;;;;;9.48;7.10;;;35.00;99.90;;;;;;5039441;28;20010;-80
2022/08/11 06:47:52;;;;;;;9.68;7.40;;;36.00;99.90;;;;;;5039255;28;20014;-80
2022/08/11 06:53:08;;;;;;;12.30;6.95;;;35.70;99.90;;;;;;5039147;28;20029;-80
2022/08/11 07:01:13;;;;;;;9.20;7.13;;;36.60;99.90;;;;;;5039166;28;20020;-80
2022/08/11 07:03:44;;;;;;;9.82;7.05;;;38.00;99.90;;;;;;5039159;28;20025;-80
2022/08/11 07:06:24;;;;;;;7.78;6.60;;;39.20;99.90;;;;;;5039183;28;20018;-80
2022/08/11 07:17:48;;;;;;;7.00;6.30;;;39.20;99.90;;;;;;5038889;28;20041;-80
2022/08/11 07:28:57;;;;;;;8.35;6.38;;;41.30;99.90;;;;;;5040764;28;20018;-81
2022/08/11 07:31:34;;;;;;;7.72;6.00;;;40.60;99.90;;;;;;5042938;28;20033;-81
2022/08/11 07:34:35;;;;;;;9.32;6.13;;;41.90;99.90;;;;;;5042490;28;20040;-80
2022/08/11 07:37:11;;;;;;;8.90;6.53;;;41.80;98.00;;;;;;5011378;28;20041;-81
2022/08/11 07:39:38;;;;;;;6.28;5.68;;;40.00;95.70;;;;;;5042576;28;20034;-80
2022/08/11 07:42:07;;;;;;;5.72;5.13;;;41.30;96.10;;;;;;5042620;28;20006;-80
2022/08/11 07:48:10;;;;;;;8.85;5.82;;;41.60;95.00;;;;;;5042648;28;20009;-80
2022/08/11 07:52:52;;;;;;;5.40;4.90;;;42.50;92.50;;;;;;5042503;28;20041;-79
2022/08/11 07:55:20;;;;;;;5.30;4.82;;;41.30;90.80;;;;;;5042318;28;20018;-78
2022/08/11 08:19:58;;;;;;;5.18;3.88;;;45.30;72.10;;;;;;5041992;28;20037;-79
2022/08/11 08:22:24;;;;;;;4.70;4.30;;;44.70;66.40;;;;;;5041958;28;20006;-79
2022/08/11 08:24:51;;;;;;;4.70;4.30;;;44.70;62.70;;;;;;5041926;28;20045;-79
2022/08/11 08:27:17;;;;;;;6.28;3.97;;;43.50;60.40;;;;;;5041776;28;20009;-79
2022/08/11 08:32:29;;;;;;;5.20;3.67;;;41.50;54.10;;;;;;5041859;28;20021;-80
2022/08/11 08:34:57;;;;;;;6.22;3.85;;;43.40;58.00;;;;;;5041238;28;20030;-79
2022/08/11 08:37:25;;;;;;;4.80;3.83;;;44.40;59.20;;;;;;5041699;28;20021;-78
2022/08/11 08:39:52;;;;;;;5.57;4.18;;;44.90;57.70;;;;;;5041658;28;20038;-78
2022/08/11 08:42:30;;;;;;;9.35;4.30;;;45.10;55.00;;;;;;5041485;28;20026;-79
2022/08/11 08:45:06;;;;;;;6.37;3.67;;;44.90;54.10;;;;;;5041563;28;20014;-80
2022/08/11 08:47:38;;;;;;;4.00;2.83;;;45.10;53.20;;;;;;5041555;28;20069;-80
2022/08/11 08:50:09;;;;;;;3.42;3.00;;;44.80;48.90;;;;;;5041388;28;20118;-80
2022/08/11 08:52:39;;;;;;;3.63;3.28;;;45.40;48.00;;;;;;5041461;28;20016;-80
2022/08/11 08:55:07;;;;;;;2.63;2.40;;;43.50;47.10;;;;;;5041421;28;20010;-79
2022/08/11 08:57:35;;;;;;;3.67;2.60;;;44.50;46.30;;;;;;5041344;28;20006;-79
2022/08/11 09:00:04;;;;;;;3.78;2.80;;;45.20;45.00;;;;;;5041239;28;20045;-80
2022/08/11 09:02:30;;;;;;;3.38;2.65;;;45.90;44.30;;;;;;5041145;28;20048;-80
2022/08/11 09:04:57;;;;;;;5.63;2.60;;;45.40;41.80;;;;;;5041301;28;20037;-79
2022/08/11 09:07:25;;;;;;;3.30;2.70;;;44.10;39.40;;;;;;5041085;28;20074;-79
2022/08/11 09:09:53;;;;;;;5.70;2.60;;;45.00;40.40;;;;;;5041052;28;20030;-79
2022/08/11 09:12:20;;;;;;;2.80;2.53;;;44.90;39.20;;;;;;5041056;28;20018;-79
2022/08/11 09:15:04;;;;;;;3.75;2.60;;;44.70;38.40;;;;;;5041051;28;20017;-79
2022/08/11 09:17:39;;;;;;;5.80;2.50;;;45.10;37.60;;;;;;5040925;28;20036;-80
2022/08/11 09:20:08;;;;;;;3.13;2.42;;;44.60;35.30;;;;;;5040900;28;20022;-79
2022/08/11 09:28:15;;;;;;;4.57;2.70;;;44.40;35.80;;;;;;5040918;28;20041;-81
2022/08/11 09:30:42;;;;;;;3.80;2.30;;;44.80;32.00;;;;;;5040516;28;20094;-82
2022/08/11 09:33:11;;;;;;;2.45;2.20;;;44.30;31.70;;;;;;5040744;28;20018;-82
2022/08/11 09:35:37;;;;;;;;;;;44.80;31.30;;;;;;5040682;28;20110;-81
2022/08/11 09:40:51;;;;;;;2.67;2.30;;;44.70;28.40;;;;;;5040652;28;20033;-81
2022/08/11 09:46:05;;;;;;;2.38;2.15;;;43.50;27.30;;;;;;5020100;28;20037;-81
2022/08/11 09:48:37;;;;;;;1.98;1.83;;;43.30;27.40;;;;;;5040284;28;20033;-81
2022/08/11 09:51:04;;;;;;;2.50;1.92;;;43.30;26.50;;;;;;5039782;28;20022;-82
2022/08/11 09:53:33;;;;;;;3.42;2.17;;;43.80;26.70;;;;;;5040337;28;20041;-80
2022/08/11 09:58:12;;;;;;;2.25;1.80;;;45.40;26.30;;;;;;5040225;28;20022;-79
2022/08/11 09:58:46;;;;;;;3.22;2.05;;;43.40;23.50;;;;;;5040161;28;20038;-81
2022/08/11 10:01:25;;;;;;;4.28;2.30;;;43.70;24.70;;;;;;5040138;28;20017;-81
2022/08/11 10:03:56;;;;;;;2.47;1.80;;;42.80;23.80;;;;;;5040103;28;20014;-81
2022/08/11 10:09:06;;;;;;;2.65;1.80;;;41.60;22.90;;;;;;5040048;28;20021;-82
2022/08/11 10:11:35;;;;;;;3.22;1.83;;;41.70;22.90;;;;;;5039907;28;20030;-81
2022/08/11 10:16:50;;;;;;;5.47;1.90;;;42.50;24.30;;;;;;5039752;28;20054;-79
2022/08/11 10:19:18;;;;;;;2.63;1.80;;;43.80;24.10;;;;;;5039856;28;20029;-79
2022/08/11 10:27:20;;;;;;;2.17;1.80;;;43.30;22.20;;;;;;5039730;28;20061;-79
2022/08/11 10:35:19;;;;;;;4.38;2.80;;;40.50;21.90;;;;;;5039408;28;20115;-79
2022/08/11 10:37:46;;;;;;;4.30;2.40;;;41.40;22.70;;;;;;5039656;28;20012;-79
2022/08/11 10:40:21;;;;;;;2.30;2.05;;;39.20;20.80;;;;;;5039493;28;20044;-79
2022/08/11 10:43:04;;;;;;;4.50;2.20;;;41.60;22.00;;;;;;5039412;28;20026;-79
2022/08/11 10:48:22;;;;;;;3.13;2.05;;;41.70;22.50;;;;;;5039399;28;20021;-80
2022/08/11 10:59:10;;;;;;;3.90;2.05;;;37.90;21.60;;;;;;5039382;28;20017;-82
2022/08/11 11:01:42;;;;;;;2.00;1.80;;;35.80;22.70;;;;;;5039362;28;20014;-81
2022/08/11 11:04:22;;;;;;;2.42;2.00;;;33.90;23.40;;;;;;5038299;28;20006;-81
2022/08/11 11:07:12;;;;;;;3.00;2.10;;;34.00;24.80;;;;;;5039259;28;20006;-82
2022/08/11 11:09:47;;;;;;;3.28;2.10;;;33.50;25.40;;;;;;5039160;28;20010;-82
2022/08/11 11:18:17;;;;;;;3.08;1.85;;;32.50;26.70;;;;;;5038980;28;20017;-81
2022/08/11 11:20:53;;;;;;;3.95;1.85;;;31.70;26.70;;;;;;5039168;28;20014;-81
2022/08/11 11:23:56;;;;;;;2.40;1.95;;;31.80;27.80;;;;;;5039099;28;20010;-81
2022/08/11 11:27:03;;;;;;;2.53;1.90;;;31.40;27.60;;;;;;5039064;28;20070;-81
2022/08/11 11:30:00;;;;;;;2.42;1.67;;;32.00;32.40;;;;;;5038412;28;20029;-80
2022/08/11 11:33:08;;;;;;;2.10;2.00;;;31.30;29.30;;;;;;5038879;28;20041;-80
2022/08/11 11:35:54;;;;;;;2.25;1.92;;;30.90;29.30;;;;;;4979175;28;20039;-80
2022/08/11 11:38:20;;;;;;;2.13;1.80;;;31.00;30.30;;;;;;5035239;28;20022;-79
2022/08/11 11:41:23;;;;;;;2.40;1.83;;;31.60;31.10;;;;;;5038759;28;20014;-79
2022/08/11 11:43:34;;;;;;;2.60;1.88;;;31.50;31.90;;;;;;5038788;28;20033;-79
2022/08/11 11:46:00;;;;;;;3.03;1.90;;;31.20;32.10;;;;;;5038898;28;20022;-79
2022/08/11 11:48:27;;;;;;;3.28;2.20;;;31.30;32.60;;;;;;5038843;28;20022;-79
2022/08/11 11:50:54;;;;;;;3.45;2.05;;;31.40;33.50;;;;;;5038587;28;20022;-79
2022/08/11 11:53:20;;;;;;;3.20;2.00;;;31.60;34.30;;;;;;5038877;28;20014;-79
2022/08/11 11:55:46;;;;;;;4.05;2.22;;;32.00;35.70;;;;;;5038645;28;20022;-79
2022/08/11 12:01:15;;;;;;;2.58;2.03;;;30.90;35.60;;;;;;5038655;28;20029;-79
2022/08/11 12:03:44;;;;;;;3.08;2.08;;;31.60;42.30;;;;;;5038635;28;20029;-79
2022/08/11 12:06:12;;;;;;;7.18;1.77;;;31.70;38.70;;;;;;5038595;28;20014;-79
2022/08/11 12:08:39;;;;;;;1.90;1.70;;;31.80;38.10;;;;;;5038563;28;20030;-79
2022/08/11 12:13:59;;;;;;;3.70;1.95;;;31.50;39.10;;;;;;5039100;28;20056;-79
2022/08/11 12:16:26;;;;;;;4.70;2.05;;;31.50;39.70;;;;;;5042197;28;20021;-80
2022/08/11 12:18:58;;;;;;;2.63;2.10;;;31.30;40.70;;;;;;5042171;28;20018;-79
2022/08/11 12:21:25;;;;;;;2.65;2.00;;;31.50;42.20;;;;;;5042091;28;20038;-79
2022/08/11 12:29:26;;;;;;;2.30;1.77;;;31.20;42.10;;;;;;5042081;28;20036;-79
2022/08/11 12:31:53;;;;;;;2.88;1.98;;;31.20;43.30;;;;;;5041566;28;20026;-79
2022/08/11 12:34:19;;;;;;;4.25;2.03;;;31.20;44.00;;;;;;5041485;28;20030;-79
2022/08/11 12:36:52;;;;;;;3.58;2.20;;;31.20;44.30;;;;;;5041757;28;20018;-79
2022/08/11 12:45:26;;;;;;;2.20;2.00;;;31.30;45.60;;;;;;5041811;28;20026;-79
2022/08/11 12:53:26;;;;;;;2.08;1.83;;;31.70;44.30;;;;;;5041601;28;20041;-79
2022/08/11 12:58:41;;;;;;;2.67;1.80;;;31.30;45.00;;;;;;5041379;28;20025;-79
2022/08/11 13:06:37;;;;;;;7.93;2.13;;;31.40;45.70;;;;;;5041274;28;20033;-79
2022/08/11 13:09:05;;;;;;;2.92;1.90;;;31.50;47.10;;;;;;5041152;28;20014;-79
2022/08/11 13:14:16;;;;;;;3.08;1.75;;;31.50;47.50;;;;;;5041082;28;20049;-80
2022/08/11 13:19:46;;;;;;;3.55;2.00;;;32.20;47.40;;;;;;5039935;28;20021;-79
2022/08/11 13:22:15;;;;;;;2.20;2.00;;;32.10;47.80;;;;;;5040708;28;20026;-79
2022/08/11 13:24:40;;;;;;;4.32;2.10;;;32.00;47.10;;;;;;5040818;28;20069;-80
2022/08/11 13:27:06;;;;;;;3.75;1.73;;;32.00;47.20;;;;;;5039961;28;20022;-78
2022/08/11 13:29:34;;;;;;;2.17;1.92;;;31.80;46.80;;;;;;5040803;28;20010;-79
2022/08/11 13:32:00;;;;;;;2.85;2.00;;;31.50;47.90;;;;;;5040787;28;20045;-80
2022/08/11 13:34:29;;;;;;;1.80;1.70;;;31.50;47.60;;;;;;5040445;28;20033;-79
2022/08/11 13:36:59;;;;;;;4.13;1.92;;;31.20;47.80;;;;;;5040722;28;20017;-79
2022/08/11 13:39:25;;;;;;;;;;;31.50;50.10;;;;;;5040941;28;20014;-79
2022/08/11 13:41:55;;;;;;;1.90;1.77;;;31.20;48.40;;;;;;5040481;28;19893;-79
2022/08/11 13:44:23;;;;;;;2.78;1.85;;;31.10;48.70;;;;;;5040579;28;20018;-78
2022/08/11 13:46:50;;;;;;;3.17;1.95;;;31.20;49.10;;;;;;5040404;28;20029;-79
2022/08/11 13:49:16;;;;;;;2.85;1.60;;;31.40;48.60;;;;;;5040477;28;20078;-79
2022/08/11 13:51:43;;;;;;;7.13;1.70;;;31.30;48.10;;;;;;5040180;28;20036;-80
2022/08/11 13:54:14;;;;;;;3.13;1.80;;;31.10;49.20;;;;;;5040254;28;20030;-79
2022/08/11 13:56:43;;;;;;;2.60;2.00;;;30.90;48.80;;;;;;5040194;28;20010;-79
2022/08/11 13:59:10;;;;;;;1.73;1.63;;;31.10;48.60;;;;;;5040093;28;20077;-79
2022/08/11 14:01:39;;;;;;;3.78;2.00;;;31.50;48.80;;;;;;5040134;28;20033;-79
2022/08/11 14:04:10;;;;;;;5.32;2.50;;;31.20;53.60;;;;;;5039632;28;20010;-79
2022/08/11 14:06:39;;;;;;;2.88;2.15;;;30.60;57.60;;;;;;5040076;28;20106;-79
2022/08/11 14:09:08;;;;;;;3.92;2.30;;;30.70;59.20;;;;;;5040173;28;20006;-81
2022/08/11 14:14:26;;;;;;;2.70;2.40;;;30.40;65.60;;;;;;5021243;28;20025;-81
2022/08/11 14:16:55;;;;;;;3.43;2.20;;;30.20;68.60;;;;;;5039901;28;20033;-81
2022/08/11 14:19:24;;;;;;;2.53;2.00;;;30.20;71.20;;;;;;5039906;28;20030;-82
2022/08/11 14:22:06;;;;;;;;;;;30.10;74.20;;;;;;5040373;28;20021;-81
2022/08/11 14:24:36;;;;;;;2.47;2.20;;;30.00;76.20;;;;;;5039817;28;19953;-81
2022/08/11 14:27:02;;;;;;;3.75;2.08;;;30.00;78.70;;;;;;5039759;28;20021;-80
2022/08/11 14:29:31;;;;;;;4.53;2.70;;;29.80;80.30;;;;;;5039722;28;20006;-81
2022/08/11 14:32:02;;;;;;;4.25;2.17;;;29.90;82.60;;;;;;5039596;28;20073;-81
2022/08/11 14:34:30;;;;;;;3.67;1.95;;;29.90;84.60;;;;;;5039225;28;20018;-81
2022/08/11 14:36:58;;;;;;;3.47;1.92;;;30.10;86.40;;;;;;5039533;28;20090;-81
2022/08/11 14:39:27;;;;;;;2.38;1.85;;;29.60;87.00;;;;;;5039618;28;20014;-80
2022/08/11 14:47:35;;;;;;;2.85;1.73;;;29.20;90.50;;;;;;5039489;28;20082;-81
2022/08/11 14:50:02;;;;;;;3.03;2.22;;;29.40;90.90;;;;;;5039318;28;20014;-82
2022/08/11 14:52:31;;;;;;;3.35;1.63;;;29.40;91.30;;;;;;5039471;28;20038;-81
2022/08/11 14:57:42;;;;;;;1.60;1.50;;;29.40;92.60;;;;;;5039439;28;20025;-81
2022/08/11 15:00:14;;;;;;;2.78;1.77;;;29.10;91.90;;;;;;5039241;28;20021;-80
2022/08/11 15:05:26;;;;;;;3.20;1.85;;;29.20;93.20;;;;;;5039236;28;20033;-80
2022/08/11 15:07:54;;;;;;;4.45;2.15;;;29.00;94.10;;;;;;5039205;28;20021;-81
2022/08/11 15:10:20;;;;;;;3.92;2.10;;;29.00;94.20;;;;;;5039091;28;20085;-81
2022/08/11 15:12:47;;;;;;;2.13;1.80;;;29.10;94.80;;;;;;5039003;28;20014;-80
2022/08/11 15:18:03;;;;;;;3.05;1.77;;;28.70;95.10;;;;;;5039084;28;20060;-81
2022/08/11 15:26:07;;;;;;;1.33;1.05;;;28.60;95.60;;;;;;5039006;28;20078;-79
2022/08/11 15:45:50;;;;;;;2.22;1.27;;;28.00;97.00;;;;;;5038803;28;20068;-80
2022/08/11 15:48:34;;;;;;;3.60;1.80;;;28.00;97.40;;;;;;5038724;28;20042;-80
2022/08/11 15:51:08;;;;;;;7.78;1.80;;;27.90;97.60;;;;;;5042585;28;20022;-82
2022/08/11 15:53:44;;;;;;;3.65;1.73;;;27.90;97.90;;;;;;5042570;28;20034;-80
2022/08/11 15:56:10;;;;;;;4.28;1.88;;;27.90;98.30;;;;;;5042059;28;20010;-80
2022/08/11 16:04:19;;;;;;;2.17;1.80;;;27.60;99.30;;;;;;5042386;28;20032;-80
2022/08/11 16:06:53;;;;;;;2.05;1.63;;;27.50;99.50;;;;;;5042357;28;20010;-80
2022/08/11 16:09:27;;;;;;;3.10;1.75;;;27.30;99.90;;;;;;5042243;28;20014;-80
2022/08/11 16:11:55;;;;;;;5.43;2.10;;;27.10;99.90;;;;;;5042181;28;20030;-81
2022/08/11 16:17:10;;;;;;;1.80;1.70;;;27.10;99.90;;;;;;5042230;28;20072;-80
2022/08/11 16:19:38;;;;;;;2.22;1.48;;;27.00;99.90;;;;;;5041983;28;20014;-81
2022/08/11 16:22:08;;;;;;;2.08;1.80;;;27.10;99.90;;;;;;5041423;28;20013;-80
2022/08/11 16:24:37;;;;;;;;;;;27.00;99.90;;;;;;5042151;28;20021;-80
2022/08/11 16:27:03;;;;;;;;;;;26.90;99.90;;;;;;5042333;28;19921;-80
2022/08/11 16:29:31;;;;;;;2.72;1.48;;;26.90;99.90;;;;;;5042020;28;19900;-81
2022/08/11 16:32:16;;;;;;;2.00;1.80;;;26.80;99.90;;;;;;5041832;28;20022;-80
2022/08/11 16:40:21;;;;;;;1.77;1.65;;;26.60;99.90;;;;;;5041954;28;20044;-80
2022/08/11 16:48:21;;;;;;;2.53;1.50;;;26.30;99.90;;;;;;5041610;28;20025;-80
2022/08/11 16:50:47;;;;;;;3.85;1.80;;;26.30;99.90;;;;;;5041356;28;20049;-81
2022/08/11 16:53:14;;;;;;;2.17;1.70;;;26.20;99.90;;;;;;5041358;28;20014;-80
2022/08/11 16:55:40;;;;;;;1.77;1.60;;;26.10;99.90;;;;;;5041568;28;20013;-81
2022/08/11 17:00:52;;;;;;;3.30;1.85;;;26.10;99.90;;;;;;5040199;28;20053;-80
2022/08/11 17:14:47;;;;;;;2.40;1.63;;;25.70;99.90;;;;;;5041072;28;20029;-80
2022/08/11 17:17:19;;;;;;;;;;;25.70;99.90;;;;;;5041443;28;20014;-80
2022/08/11 17:19:52;;;;;;;1.85;1.75;;;25.60;99.90;;;;;;5041025;28;19921;-80
2022/08/11 17:25:05;;;;;;;2.78;2.05;;;25.50;99.90;;;;;;5040908;28;20033;-79
2022/08/11 17:27:32;;;;;;;3.15;1.80;;;25.40;99.90;;;;;;5040820;28;20028;-80
2022/08/11 17:30:01;;;;;;;3.90;2.00;;;25.20;99.90;;;;;;5040807;28;20077;-80
2022/08/11 17:35:28;;;;;;;3.72;1.92;;;25.20;99.90;;;;;;5040414;28;20060;-80
2022/08/11 17:38:11;;;;;;;3.63;1.80;;;25.10;99.90;;;;;;5040722;28;20041;-80
2022/08/11 17:48:23;;;;;;;3.05;1.90;;;25.00;99.90;;;;;;5040154;28;20014;-79
2022/08/11 17:48:55;;;;;;;3.17;1.90;;;24.70;99.90;;;;;;5040462;28;20033;-80
2022/08/11 17:59:51;;;;;;;1.73;1.52;;;24.40;99.90;;;;;;5040218;28;20058;-80
2022/08/11 18:05:05;;;;;;;3.38;1.80;;;23.90;99.90;;;;;;5040277;28;20017;-80
